Time;durP1;ratioP1;P1;durP2;ratioP2;P2;SDS_P1;SDS_P2;PMS_P1;PMS_P2;Temp;Humidity;BMP_temperature;BMP_pressure;BME280_temperature;BME280_humidity;BME280_pressure;Samples;Min_cycle;Max_cycle;Signal;HPM_P1;HPM_P2
2021/07/21 00:08:15;;;;;;;5.48;2.68;;;;;;;19.25;100.00;100560.89;715020;1202;115194;-81
2021/07/21 00:23:19;;;;;;;6.13;3.30;;;;;;;18.89;100.00;100564.32;714028;1202;115776;-83
2021/07/21 00:38:21;;;;;;;7.28;3.78;;;;;;;18.37;100.00;100559.83;714547;1202;115864;-83
2021/07/21 00:53:24;;;;;;;7.55;4.45;;;;;;;18.17;100.00;100575.43;714834;1201;114767;-82
2021/07/21 01:08:27;;;;;;;10.35;4.28;;;;;;;17.98;100.00;100574.09;714184;1202;115522;-83
2021/07/21 01:23:58;;;;;;;9.27;4.73;;;;;;;17.74;100.00;100573.22;714264;1178;114453;-80
2021/07/21 01:39:10;;;;;;;13.05;5.35;;;;;;;17.61;100.00;100589.70;714072;1178;114490;-82
2021/07/21 01:54:15;;;;;;;8.35;4.30;;;;;;;17.25;100.00;100576.95;713944;1202;115836;-82
2021/07/21 02:09:19;;;;;;;9.73;4.38;;;;;;;17.09;100.00;100575.16;713999;1201;113769;-81
2021/07/21 02:24:22;;;;;;;9.53;4.93;;;;;;;16.82;100.00;100571.08;714133;1176;113347;-81
2021/07/21 02:39:24;;;;;;;11.55;5.30;;;;;;;16.74;100.00;100579.88;714091;1202;114657;-81
2021/07/21 02:54:55;;;;;;;10.33;5.60;;;;;;;16.44;100.00;100575.11;713873;1205;116045;-80
2021/07/21 03:09:59;;;;;;;11.55;6.55;;;;;;;16.37;100.00;100584.70;714048;1176;114832;-80
2021/07/21 03:25:07;;;;;;;13.30;7.00;;;;;;;16.20;100.00;100596.28;714328;1200;114202;-81
2021/07/21 03:40:10;;;;;;;13.20;6.65;;;;;;;16.46;100.00;100599.59;714058;1179;114300;-81
2021/07/21 03:55:14;;;;;;;11.75;6.20;;;;;;;16.53;100.00;100607.70;714028;1177;114707;-81
2021/07/21 04:10:17;;;;;;;12.05;5.93;;;;;;;16.72;100.00;100598.59;714338;1178;115037;-79
2021/07/21 04:25:21;;;;;;;11.18;5.65;;;;;;;17.25;100.00;100616.72;714432;1203;114204;-79
2021/07/21 04:40:25;;;;;;;12.00;6.60;;;;;;;17.61;100.00;100632.95;714214;1202;115057;-82
2021/07/21 04:55:28;;;;;;;12.57;6.10;;;;;;;17.95;100.00;100625.70;713839;1202;114512;-80
2021/07/21 05:10:31;;;;;;;9.35;5.70;;;;;;;18.15;100.00;100622.59;713859;1203;114852;-80
2021/07/21 05:25:35;;;;;;;10.10;5.60;;;;;;;18.67;100.00;100640.41;714014;1202;114558;-80
2021/07/21 05:40:38;;;;;;;10.45;6.38;;;;;;;19.09;100.00;100652.32;713684;1202;116047;-80
2021/07/21 05:55:40;;;;;;;11.27;5.73;;;;;;;19.65;100.00;100658.17;713595;1203;114567;-78
2021/07/21 06:10:42;;;;;;;10.23;5.48;;;;;;;20.10;100.00;100678.39;713810;1200;115273;-78
2021/07/21 06:25:44;;;;;;;8.63;5.13;;;;;;;20.39;100.00;100687.30;713718;1203;114820;-81
2021/07/21 06:40:48;;;;;;;9.83;4.90;;;;;;;21.05;100.00;100669.38;713751;1202;114833;-82
2021/07/21 06:55:50;;;;;;;8.70;5.10;;;;;;;21.42;100.00;100678.85;714023;1203;115286;-82
2021/07/21 07:10:53;;;;;;;5.75;3.75;;;;;;;21.67;98.03;100675.72;713963;1202;115062;-82
2021/07/21 07:25:55;;;;;;;6.83;3.30;;;;;;;22.58;92.30;100679.86;713721;1201;114487;-82
2021/07/21 07:40:58;;;;;;;7.40;3.25;;;;;;;23.05;88.36;100698.53;714084;1202;114540;-77
2021/07/21 07:56:00;;;;;;;4.10;2.13;;;;;;;23.81;82.25;100695.47;716368;1202;114039;-76
2021/07/21 08:11:04;;;;;;;3.30;2.63;;;;;;;22.54;83.15;100710.70;716094;1202;113840;-78
2021/07/21 08:26:07;;;;;;;8.77;3.10;;;;;;;22.45;86.70;100719.94;714315;1202;114913;-77
2021/07/21 08:41:09;;;;;;;7.50;2.80;;;;;;;24.64;84.08;100715.23;713941;1200;114708;-75
2021/07/21 08:56:11;;;;;;;4.80;2.80;;;;;;;23.62;75.88;100715.95;714046;1202;115325;-77
2021/07/21 09:11:13;;;;;;;5.15;3.10;;;;;;;22.60;78.80;100735.78;713873;1200;114756;-78
2021/07/21 09:26:24;;;;;;;4.05;2.55;;;;;;;22.42;78.53;100736.36;715276;1203;115188;-80
2021/07/21 09:41:26;;;;;;;4.25;2.65;;;;;;;23.93;77.46;100739.35;715229;1202;114012;-78
2021/07/21 09:56:32;;;;;;;8.60;3.08;;;;;;;23.82;73.70;100732.78;715472;1205;114735;-78
2021/07/21 10:11:42;;;;;;;3.20;2.40;;;;;;;23.84;72.66;100733.37;715465;1202;114703;-79
2021/07/21 10:26:45;;;;;;;4.68;2.75;;;;;;;24.15;71.09;100736.34;715745;1202;114192;-85
2021/07/21 10:41:49;;;;;;;5.60;2.70;;;;;;;24.74;69.64;100726.30;722023;1202;115550;-86
2021/07/21 11:12:35;;;;;;;3.90;2.50;;;;;;;24.32;69.24;100736.67;721233;1177;112765;-85
2021/07/21 11:27:53;;;;;;;4.43;2.50;;;;;;;23.26;71.57;100763.59;716087;1178;113971;-86
2021/07/21 11:42:55;;;;;;;3.88;2.43;;;;;;;22.58;73.52;100767.23;715675;1203;114141;-85
2021/07/21 11:57:57;;;;;;;3.73;2.43;;;;;;;22.68;75.51;100764.98;715652;1177;113987;-86
2021/07/21 12:13:08;;;;;;;4.23;2.50;;;;;;;23.09;74.85;100755.13;715692;1202;114845;-85
2021/07/21 12:28:11;;;;;;;5.65;2.53;;;;;;;24.00;74.51;100758.88;715709;1202;115124;-85
2021/07/21 12:43:16;;;;;;;4.73;2.70;;;;;;;25.71;71.25;100752.64;715730;1203;114244;-87
2021/07/21 12:58:22;;;;;;;5.03;2.33;;;;;;;27.71;66.43;100749.79;714281;1202;115307;-84
2021/07/21 13:13:30;;;;;;;5.20;2.15;;;;;;;28.04;63.53;100748.31;713910;1202;113877;-75
2021/07/21 13:28:35;;;;;;;7.00;2.87;;;;;;;26.96;63.53;100756.73;713815;1202;115088;-75
2021/07/21 13:43:37;;;;;;;4.70;2.28;;;;;;;27.33;62.99;100741.17;714981;1177;113892;-75
2021/07/21 13:58:39;;;;;;;3.17;2.10;;;;;;;27.88;61.77;100741.77;714100;1200;115387;-76
2021/07/21 14:13:41;;;;;;;6.23;2.60;;;;;;;27.01;62.71;100740.71;714144;1205;113776;-82
2021/07/21 14:28:44;;;;;;;8.93;4.10;;;;;;;25.99;64.48;100737.02;714660;1177;115020;-77
2021/07/21 14:43:46;;;;;;;8.83;2.87;;;;;;;26.51;64.17;100745.39;713924;1202;115301;-75
2021/07/21 14:58:48;;;;;;;5.60;2.10;;;;;;;27.30;63.82;100735.44;714213;1203;115231;-82
2021/07/21 15:13:51;;;;;;;4.40;2.40;;;;;;;26.96;61.48;100748.66;714431;1177;113911;-82
2021/07/21 15:28:54;;;;;;;3.40;2.50;;;;;;;25.79;62.00;100756.90;714059;1202;114835;-75
2021/07/21 15:43:56;;;;;;;2.58;2.05;;;;;;;25.72;63.78;100756.14;714109;1184;114673;-75
2021/07/21 15:58:58;;;;;;;4.38;2.30;;;;;;;25.65;65.19;100760.78;714226;1202;114521;-75
2021/07/21 16:14:00;;;;;;;7.33;3.55;;;;;;;25.09;66.21;100763.38;714073;1202;114627;-75
2021/07/21 16:29:03;;;;;;;6.70;2.77;;;;;;;24.65;69.88;100776.69;714238;1205;114247;-74
2021/07/21 16:44:06;;;;;;;8.40;4.03;;;;;;;24.32;73.34;100775.01;714146;1205;115140;-80
2021/07/21 16:59:08;;;;;;;8.25;2.50;;;;;;;24.04;76.26;100778.05;714206;1200;114899;-79
2021/07/21 17:14:11;;;;;;;8.20;3.90;;;;;;;23.69;79.21;100781.84;714295;1200;113702;-80
2021/07/21 17:29:13;;;;;;;7.30;3.00;;;;;;;23.38;79.82;100794.03;714208;1203;113829;-77
2021/07/21 17:44:15;;;;;;;9.28;4.03;;;;;;;23.15;80.51;100804.34;714063;1201;115576;-80
2021/07/21 17:59:17;;;;;;;7.33;3.53;;;;;;;22.97;82.12;100818.31;714485;1202;114929;-81
2021/07/21 18:14:20;;;;;;;13.68;5.75;;;;;;;22.81;84.15;100814.19;714414;1175;115113;-78
2021/07/21 18:29:22;;;;;;;8.07;4.17;;;;;;;22.65;85.04;100818.06;714078;1202;114161;-81
2021/07/21 18:44:24;;;;;;;5.43;3.30;;;;;;;22.41;86.69;100814.92;714146;1203;116623;-77
2021/07/21 18:59:26;;;;;;;6.45;3.70;;;;;;;22.11;88.97;100821.33;714418;1177;114901;-81
2021/07/21 19:14:28;;;;;;;8.37;3.33;;;;;;;21.92;90.91;100851.42;714240;1202;115277;-78
2021/07/21 19:29:31;;;;;;;5.38;3.38;;;;;;;21.69;92.36;100851.70;714476;1203;115008;-81
2021/07/21 19:44:33;;;;;;;7.60;3.45;;;;;;;21.45;95.01;100867.92;715486;1202;114252;-81
2021/07/21 19:59:39;;;;;;;8.23;4.53;;;;;;;21.27;96.84;100875.56;714282;1200;115468;-84
2021/07/21 20:14:42;;;;;;;8.50;3.87;;;;;;;21.03;98.41;100879.45;714586;1202;114537;-83
2021/07/21 20:29:44;;;;;;;5.93;3.43;;;;;;;20.76;100.00;100882.66;715841;1177;113910;-82
2021/07/21 20:44:47;;;;;;;6.73;4.10;;;;;;;20.63;100.00;100885.14;713955;1202;114932;-83
2021/07/21 20:59:50;;;;;;;12.18;5.80;;;;;;;20.48;100.00;100898.47;714867;1202;115180;-83
2021/07/21 21:14:53;;;;;;;9.53;4.78;;;;;;;20.19;100.00;100900.17;714701;1202;115175;-82
2021/07/21 21:29:55;;;;;;;10.47;4.57;;;;;;;19.93;100.00;100908.59;714612;1202;114917;-84
2021/07/21 21:44:57;;;;;;;8.08;4.60;;;;;;;19.78;100.00;100914.69;714579;1203;114564;-82
2021/07/21 21:59:59;;;;;;;8.13;4.57;;;;;;;19.75;100.00;100922.20;715872;1206;115389;-83
2021/07/21 22:15:07;;;;;;;9.93;5.30;;;;;;;19.52;100.00;100925.73;714101;1178;114287;-82
2021/07/21 22:30:14;;;;;;;7.53;3.78;;;;;;;19.28;100.00;100929.38;713937;1205;115040;-82
2021/07/21 22:45:28;;;;;;;10.73;4.55;;;;;;;19.11;100.00;100929.50;713801;1202;114358;-84
2021/07/21 23:00:49;;;;;;;9.97;3.87;;;;;;;18.89;100.00;100933.77;714241;1202;116264;-80
2021/07/21 23:15:53;;;;;;;12.27;6.40;;;;;;;18.57;100.00;100937.39;714122;1202;115318;-82
2021/07/21 23:30:57;;;;;;;8.37;4.40;;;;;;;18.48;100.00;100927.80;714088;1202;115038;-81
2021/07/21 23:45:59;;;;;;;8.00;4.90;;;;;;;18.25;100.00;100944.44;713969;1201;115792;-81
